URO800 RKSI-VHHX
Flight info
| Callsign | URO800 |
|---|---|
| Flight time | 3h 20m |
| Altitude | 38000 |
| Route | BOPTA2Y BOPTA Z51 BEDES Y711 MUGUS Y742 SALMI Q11 DRAKE A1 ELATO |
| Aircraft | A346/H-SDE2E3FGHIJ3J4J5M1RWXY/LB1D1 |
Departure
| Time | 2026-05-03 20:15 |
|---|---|
| Airport | Incheon International Airport (RKSI) |
Arrival
| Time | 2026-05-03 23:36 |
|---|---|
| Airport | Hong Kong International Airport Kai Tak (VHHX) |
| Time | Latitude | Longitude | Altitude | Speed | Heading |
|---|---|---|---|---|---|
| 2026-05-03 20:15 | 37.45858 | 126.42824 | 46 ft | 165 kts | 327° |
| 2026-05-03 20:15 | 37.46870 | 126.41955 | 419 ft | 180 kts | 322° |
| 2026-05-03 20:15 | 37.47865 | 126.40984 | 1187 ft | 180 kts | 317° |
| 2026-05-03 20:15 | 37.48683 | 126.39848 | 2056 ft | 171 kts | 310° |
| 2026-05-03 20:16 | 37.49368 | 126.38564 | 2541 ft | 185 kts | 306° |
| 2026-05-03 20:16 | 37.50037 | 126.37081 | 2939 ft | 205 kts | 296° |
| 2026-05-03 20:16 | 37.50371 | 126.35236 | 3406 ft | 228 kts | 279° |
| 2026-05-03 20:16 | 37.50431 | 126.33886 | 3746 ft | 239 kts | 277° |
| 2026-05-03 20:17 | 37.50500 | 126.31754 | 4459 ft | 246 kts | 276° |
| 2026-05-03 20:17 | 37.50569 | 126.28879 | 5626 ft | 248 kts | 277° |
| 2026-05-03 20:17 | 37.50620 | 126.26685 | 6497 ft | 251 kts | 277° |
| 2026-05-03 20:17 | 37.50673 | 126.24469 | 7345 ft | 254 kts | 277° |
| 2026-05-03 20:18 | 37.50710 | 126.22961 | 7955 ft | 255 kts | 277° |
| 2026-05-03 20:18 | 37.50624 | 126.20734 | 8855 ft | 265 kts | 262° |
| 2026-05-03 20:18 | 37.49800 | 126.18603 | 9781 ft | 281 kts | 238° |
| 2026-05-03 20:18 | 37.48235 | 126.17007 | 10560 ft | 303 kts | 212° |
| 2026-05-03 20:19 | 37.46216 | 126.15979 | 11122 ft | 322 kts | 206° |
| 2026-05-03 20:19 | 37.44025 | 126.15062 | 11566 ft | 345 kts | 197° |
| 2026-05-03 20:19 | 37.41531 | 126.14997 | 11912 ft | 376 kts | 173° |
| 2026-05-03 20:19 | 37.39035 | 126.16274 | 12249 ft | 402 kts | 147° |
| 2026-05-03 20:20 | 37.36959 | 126.18747 | 12703 ft | 417 kts | 130° |
| 2026-05-03 20:20 | 37.35102 | 126.21577 | 13517 ft | 422 kts | 128° |
| 2026-05-03 20:20 | 37.33235 | 126.24453 | 14330 ft | 425 kts | 129° |
| 2026-05-03 20:20 | 37.31315 | 126.27309 | 15126 ft | 428 kts | 131° |
| 2026-05-03 20:21 | 37.29379 | 126.30111 | 15918 ft | 431 kts | 131° |
| 2026-05-03 20:21 | 37.27393 | 126.32951 | 16719 ft | 434 kts | 132° |
| 2026-05-03 20:21 | 37.25387 | 126.35806 | 17501 ft | 437 kts | 132° |
| 2026-05-03 20:21 | 37.23361 | 126.38687 | 18257 ft | 441 kts | 133° |
| 2026-05-03 20:22 | 37.21285 | 126.41559 | 18884 ft | 444 kts | 137° |
| 2026-05-03 20:22 | 37.18900 | 126.44012 | 19516 ft | 444 kts | 149° |
| 2026-05-03 20:22 | 37.16246 | 126.45851 | 20155 ft | 442 kts | 161° |
| 2026-05-03 20:22 | 37.13325 | 126.47289 | 20830 ft | 443 kts | 165° |
| 2026-05-03 20:23 | 37.10420 | 126.48611 | 21485 ft | 446 kts | 166° |
| 2026-05-03 20:23 | 37.07494 | 126.49949 | 22135 ft | 449 kts | 166° |
| 2026-05-03 20:23 | 37.04541 | 126.51272 | 22792 ft | 450 kts | 168° |
| 2026-05-03 20:23 | 37.01540 | 126.52413 | 23432 ft | 450 kts | 172° |
| 2026-05-03 20:24 | 36.98505 | 126.53420 | 23954 ft | 453 kts | 172° |
| 2026-05-03 20:24 | 36.95444 | 126.54426 | 24463 ft | 456 kts | 173° |
| 2026-05-03 20:24 | 36.92406 | 126.55424 | 24958 ft | 459 kts | 173° |
| 2026-05-03 20:24 | 36.89298 | 126.56445 | 25456 ft | 462 kts | 174° |
| 2026-05-03 20:25 | 36.86183 | 126.57471 | 25950 ft | 464 kts | 174° |
| 2026-05-03 20:25 | 36.83041 | 126.58505 | 26439 ft | 467 kts | 174° |
| 2026-05-03 20:25 | 36.79885 | 126.59544 | 26922 ft | 470 kts | 175° |
| 2026-05-03 20:25 | 36.76706 | 126.60588 | 27382 ft | 474 kts | 175° |
| 2026-05-03 20:26 | 36.73509 | 126.61638 | 27831 ft | 477 kts | 175° |
| 2026-05-03 20:26 | 36.70295 | 126.62710 | 28335 ft | 480 kts | 175° |
| 2026-05-03 20:26 | 36.67065 | 126.63799 | 28924 ft | 480 kts | 175° |
| 2026-05-03 20:26 | 36.63849 | 126.64888 | 29625 ft | 478 kts | 176° |
| 2026-05-03 20:27 | 36.60640 | 126.65974 | 30257 ft | 476 kts | 176° |
| 2026-05-03 20:27 | 36.57440 | 126.67046 | 30803 ft | 475 kts | 176° |
| 2026-05-03 20:27 | 36.54254 | 126.68108 | 31319 ft | 474 kts | 176° |
| 2026-05-03 20:27 | 36.51107 | 126.69157 | 31837 ft | 474 kts | 176° |
| 2026-05-03 20:28 | 36.47927 | 126.70218 | 32351 ft | 473 kts | 176° |
| 2026-05-03 20:28 | 36.44750 | 126.71279 | 32895 ft | 472 kts | 176° |
| 2026-05-03 20:28 | 36.41583 | 126.72337 | 33415 ft | 471 kts | 176° |
| 2026-05-03 20:28 | 36.38422 | 126.73392 | 33920 ft | 470 kts | 176° |
| 2026-05-03 20:29 | 36.35268 | 126.74453 | 34353 ft | 469 kts | 176° |
| 2026-05-03 20:29 | 36.32117 | 126.75519 | 34744 ft | 469 kts | 176° |
| 2026-05-03 20:29 | 36.28969 | 126.76582 | 35100 ft | 468 kts | 176° |
| 2026-05-03 20:29 | 36.25820 | 126.77643 | 35455 ft | 468 kts | 176° |
| 2026-05-03 20:30 | 36.22667 | 126.78615 | 35801 ft | 463 kts | 180° |
| 2026-05-03 20:30 | 36.19525 | 126.79368 | 36114 ft | 457 kts | 182° |
| 2026-05-03 20:30 | 36.16433 | 126.79899 | 36395 ft | 453 kts | 186° |
| 2026-05-03 20:30 | 36.13302 | 126.80228 | 36644 ft | 449 kts | 188° |
| 2026-05-03 20:31 | 36.10195 | 126.80351 | 36880 ft | 445 kts | 192° |
| 2026-05-03 20:31 | 36.07113 | 126.80275 | 37121 ft | 441 kts | 194° |
| 2026-05-03 20:31 | 36.04063 | 126.80008 | 37363 ft | 438 kts | 196° |
| 2026-05-03 20:31 | 36.01013 | 126.79673 | 37603 ft | 440 kts | 196° |
| 2026-05-03 20:32 | 35.97961 | 126.79350 | 37839 ft | 441 kts | 196° |
| 2026-05-03 20:32 | 35.91820 | 126.78698 | 37917 ft | 443 kts | 196° |
| 2026-05-03 20:33 | 35.85678 | 126.78039 | 37924 ft | 442 kts | 196° |
| 2026-05-03 20:33 | 35.79543 | 126.77375 | 37922 ft | 442 kts | 197° |
| 2026-05-03 20:34 | 35.73459 | 126.76717 | 37926 ft | 441 kts | 197° |
| 2026-05-03 20:34 | 35.67342 | 126.76057 | 37928 ft | 441 kts | 197° |
| 2026-05-03 20:35 | 35.61239 | 126.75400 | 37933 ft | 439 kts | 197° |
| 2026-05-03 20:35 | 35.55164 | 126.74746 | 37940 ft | 438 kts | 197° |
| 2026-05-03 20:36 | 35.49083 | 126.74093 | 37936 ft | 437 kts | 197° |
| 2026-05-03 20:36 | 35.43027 | 126.73446 | 37943 ft | 436 kts | 198° |
| 2026-05-03 20:37 | 35.36986 | 126.72797 | 37949 ft | 435 kts | 197° |
| 2026-05-03 20:37 | 35.30990 | 126.72159 | 37956 ft | 435 kts | 198° |
| 2026-05-03 20:38 | 35.24961 | 126.71519 | 37952 ft | 434 kts | 198° |
| 2026-05-03 20:38 | 35.18943 | 126.70877 | 37950 ft | 434 kts | 198° |
| 2026-05-03 20:39 | 35.12937 | 126.70238 | 37954 ft | 433 kts | 198° |
| 2026-05-03 20:39 | 35.06934 | 126.69604 | 37956 ft | 432 kts | 198° |
| 2026-05-03 20:40 | 35.00957 | 126.68972 | 37958 ft | 430 kts | 199° |
| 2026-05-03 20:40 | 34.94995 | 126.68339 | 37961 ft | 430 kts | 199° |
| 2026-05-03 20:41 | 34.89040 | 126.67708 | 37969 ft | 429 kts | 199° |
| 2026-05-03 20:41 | 34.83129 | 126.67083 | 37962 ft | 428 kts | 199° |
| 2026-05-03 20:42 | 34.77199 | 126.66457 | 37955 ft | 427 kts | 199° |
| 2026-05-03 20:42 | 34.71282 | 126.65834 | 37965 ft | 426 kts | 199° |
| 2026-05-03 20:43 | 34.65383 | 126.65211 | 37959 ft | 424 kts | 199° |
| 2026-05-03 20:43 | 34.59498 | 126.64596 | 37967 ft | 423 kts | 199° |
| 2026-05-03 20:44 | 34.53684 | 126.63984 | 37968 ft | 422 kts | 199° |
| 2026-05-03 20:44 | 34.47843 | 126.63371 | 37988 ft | 422 kts | 199° |
| 2026-05-03 20:45 | 34.42001 | 126.62758 | 37971 ft | 420 kts | 199° |
| 2026-05-03 20:45 | 34.36186 | 126.62153 | 37973 ft | 418 kts | 200° |
| 2026-05-03 20:46 | 34.30390 | 126.61548 | 37975 ft | 417 kts | 200° |
| 2026-05-03 20:46 | 34.24619 | 126.60947 | 37983 ft | 415 kts | 200° |
| 2026-05-03 20:47 | 34.18867 | 126.60349 | 37980 ft | 414 kts | 200° |
| 2026-05-03 20:47 | 34.13172 | 126.59757 | 37980 ft | 413 kts | 200° |
| 2026-05-03 20:48 | 34.07448 | 126.59159 | 37988 ft | 412 kts | 200° |
| 2026-05-03 20:48 | 34.01735 | 126.58563 | 37992 ft | 411 kts | 200° |
| 2026-05-03 20:49 | 33.96036 | 126.57970 | 37992 ft | 411 kts | 200° |
| 2026-05-03 20:49 | 33.90358 | 126.57337 | 37999 ft | 406 kts | 202° |
| 2026-05-03 20:50 | 33.84843 | 126.56238 | 37993 ft | 396 kts | 207° |
| 2026-05-03 20:50 | 33.79552 | 126.54602 | 38011 ft | 387 kts | 211° |
| 2026-05-03 20:51 | 33.74511 | 126.52518 | 38019 ft | 382 kts | 213° |
| 2026-05-03 20:51 | 33.69508 | 126.50374 | 38020 ft | 382 kts | 213° |
| 2026-05-03 20:52 | 33.64537 | 126.48236 | 38021 ft | 381 kts | 213° |
| 2026-05-03 20:52 | 33.59536 | 126.46077 | 38025 ft | 381 kts | 213° |
| 2026-05-03 20:53 | 33.54546 | 126.43923 | 38028 ft | 381 kts | 213° |
| 2026-05-03 20:53 | 33.49553 | 126.41767 | 38026 ft | 381 kts | 213° |
| 2026-05-03 20:54 | 33.44569 | 126.39619 | 38029 ft | 381 kts | 213° |
| 2026-05-03 20:54 | 33.37076 | 126.36398 | 38023 ft | 381 kts | 213° |
| 2026-05-03 20:55 | 33.32076 | 126.34252 | 38023 ft | 382 kts | 213° |
| 2026-05-03 20:55 | 33.27075 | 126.32107 | 38023 ft | 382 kts | 213° |
| 2026-05-03 20:56 | 33.22070 | 126.29962 | 38021 ft | 382 kts | 213° |
| 2026-05-03 20:56 | 33.17090 | 126.27830 | 38018 ft | 382 kts | 213° |
| 2026-05-03 20:57 | 33.12073 | 126.25685 | 38020 ft | 382 kts | 213° |
| 2026-05-03 20:57 | 33.07056 | 126.23542 | 38024 ft | 383 kts | 213° |
| 2026-05-03 20:58 | 33.02037 | 126.21401 | 38035 ft | 383 kts | 213° |
| 2026-05-03 20:58 | 32.97019 | 126.19255 | 38023 ft | 383 kts | 213° |
| 2026-05-03 20:59 | 32.92002 | 126.17101 | 38034 ft | 383 kts | 213° |
| 2026-05-03 20:59 | 32.87016 | 126.14963 | 38028 ft | 383 kts | 213° |
| 2026-05-03 21:00 | 32.83661 | 126.13525 | 38032 ft | 383 kts | 213° |
| 2026-05-03 21:00 | 32.76981 | 126.10667 | 38037 ft | 383 kts | 213° |
| 2026-05-03 21:01 | 32.71967 | 126.08523 | 38041 ft | 383 kts | 213° |
| 2026-05-03 21:01 | 32.66941 | 126.06377 | 38040 ft | 383 kts | 213° |
| 2026-05-03 21:02 | 32.61918 | 126.04235 | 38038 ft | 384 kts | 213° |
| 2026-05-03 21:02 | 32.56897 | 126.02096 | 38047 ft | 384 kts | 213° |
| 2026-05-03 21:03 | 32.51899 | 125.99969 | 38051 ft | 384 kts | 213° |
| 2026-05-03 21:03 | 32.46868 | 125.97833 | 38045 ft | 384 kts | 213° |
| 2026-05-03 21:04 | 32.41831 | 125.95701 | 38049 ft | 384 kts | 213° |
| 2026-05-03 21:04 | 32.37655 | 125.93934 | 38051 ft | 383 kts | 213° |
| 2026-05-03 21:05 | 32.32624 | 125.91807 | 38051 ft | 383 kts | 213° |
| 2026-05-03 21:05 | 32.26790 | 125.89343 | 38057 ft | 383 kts | 212° |
| 2026-05-03 21:06 | 32.22588 | 125.87570 | 38059 ft | 382 kts | 212° |
| 2026-05-03 21:06 | 32.17611 | 125.85472 | 38058 ft | 382 kts | 212° |
| 2026-05-03 21:07 | 32.12600 | 125.83362 | 38059 ft | 382 kts | 212° |
| 2026-05-03 21:07 | 32.07580 | 125.81249 | 38059 ft | 383 kts | 212° |
| 2026-05-03 21:08 | 32.02562 | 125.79142 | 38062 ft | 383 kts | 212° |
| 2026-05-03 21:08 | 31.97546 | 125.77036 | 38067 ft | 383 kts | 212° |
| 2026-05-03 21:09 | 31.92520 | 125.74923 | 38070 ft | 384 kts | 212° |
| 2026-05-03 21:09 | 31.87487 | 125.72808 | 38071 ft | 384 kts | 212° |
| 2026-05-03 21:10 | 31.82436 | 125.70687 | 38070 ft | 385 kts | 212° |
| 2026-05-03 21:10 | 31.77380 | 125.68567 | 38072 ft | 386 kts | 212° |
| 2026-05-03 21:11 | 31.72347 | 125.66460 | 38073 ft | 387 kts | 212° |
| 2026-05-03 21:11 | 31.67265 | 125.64333 | 38074 ft | 388 kts | 212° |
| 2026-05-03 21:12 | 31.62163 | 125.62197 | 38074 ft | 389 kts | 212° |
| 2026-05-03 21:12 | 31.57051 | 125.60060 | 38075 ft | 390 kts | 212° |
| 2026-05-03 21:13 | 31.51922 | 125.57917 | 38078 ft | 391 kts | 212° |
| 2026-05-03 21:13 | 31.46821 | 125.55783 | 38079 ft | 391 kts | 212° |
| 2026-05-03 21:14 | 31.41681 | 125.53633 | 38074 ft | 392 kts | 212° |
| 2026-05-03 21:14 | 31.36538 | 125.51483 | 38075 ft | 393 kts | 211° |
| 2026-05-03 21:15 | 31.31378 | 125.49329 | 38075 ft | 393 kts | 211° |
| 2026-05-03 21:15 | 31.26221 | 125.47177 | 38073 ft | 394 kts | 211° |
| 2026-05-03 21:16 | 31.21052 | 125.45024 | 38079 ft | 394 kts | 211° |
| 2026-05-03 21:16 | 31.15907 | 125.42883 | 38079 ft | 395 kts | 211° |
| 2026-05-03 21:17 | 31.11600 | 125.41092 | 38082 ft | 395 kts | 211° |
| 2026-05-03 21:17 | 31.05537 | 125.38574 | 38092 ft | 396 kts | 211° |
| 2026-05-03 21:18 | 31.00340 | 125.36419 | 38094 ft | 396 kts | 211° |
| 2026-05-03 21:18 | 30.95142 | 125.34266 | 38092 ft | 396 kts | 211° |
| 2026-05-03 21:19 | 30.89932 | 125.32110 | 38085 ft | 397 kts | 211° |
| 2026-05-03 21:19 | 30.84758 | 125.29971 | 38092 ft | 397 kts | 211° |
| 2026-05-03 21:20 | 30.79541 | 125.27816 | 38091 ft | 398 kts | 210° |
| 2026-05-03 21:20 | 30.74318 | 125.25662 | 38092 ft | 399 kts | 210° |
| 2026-05-03 21:21 | 30.69079 | 125.23504 | 38097 ft | 399 kts | 210° |
| 2026-05-03 21:21 | 30.63834 | 125.21346 | 38098 ft | 400 kts | 210° |
| 2026-05-03 21:22 | 30.58579 | 125.19186 | 38101 ft | 401 kts | 210° |
| 2026-05-03 21:22 | 30.53309 | 125.17022 | 38100 ft | 402 kts | 210° |
| 2026-05-03 21:23 | 30.48033 | 125.14859 | 38104 ft | 403 kts | 210° |
| 2026-05-03 21:23 | 30.42738 | 125.12693 | 38107 ft | 403 kts | 210° |
| 2026-05-03 21:24 | 30.37439 | 125.10526 | 38105 ft | 404 kts | 210° |
| 2026-05-03 21:24 | 30.32121 | 125.08353 | 38106 ft | 405 kts | 210° |
| 2026-05-03 21:25 | 30.26834 | 125.06194 | 38107 ft | 406 kts | 210° |
| 2026-05-03 21:25 | 30.21496 | 125.04016 | 38106 ft | 407 kts | 210° |
| 2026-05-03 21:26 | 30.16146 | 125.01836 | 38108 ft | 408 kts | 210° |
| 2026-05-03 21:26 | 30.10799 | 124.99660 | 38107 ft | 408 kts | 210° |
| 2026-05-03 21:27 | 30.05447 | 124.97482 | 38103 ft | 408 kts | 210° |
| 2026-05-03 21:27 | 30.00084 | 124.95305 | 38110 ft | 408 kts | 210° |
| 2026-05-03 21:28 | 29.94756 | 124.93047 | 38107 ft | 407 kts | 211° |
| 2026-05-03 21:28 | 29.89474 | 124.90784 | 38107 ft | 407 kts | 211° |
| 2026-05-03 21:29 | 29.84151 | 124.88509 | 38109 ft | 407 kts | 210° |
| 2026-05-03 21:29 | 29.78833 | 124.86242 | 38110 ft | 407 kts | 210° |
| 2026-05-03 21:30 | 29.73513 | 124.83977 | 38115 ft | 407 kts | 210° |
| 2026-05-03 21:30 | 29.68193 | 124.81714 | 38117 ft | 408 kts | 210° |
| 2026-05-03 21:31 | 29.62899 | 124.79465 | 38121 ft | 408 kts | 210° |
| 2026-05-03 21:31 | 29.57581 | 124.77209 | 38117 ft | 407 kts | 210° |
| 2026-05-03 21:32 | 29.52261 | 124.74955 | 38117 ft | 407 kts | 210° |
| 2026-05-03 21:32 | 29.46936 | 124.72701 | 38118 ft | 408 kts | 210° |
| 2026-05-03 21:33 | 29.41611 | 124.70448 | 38117 ft | 408 kts | 210° |
| 2026-05-03 21:33 | 29.36268 | 124.68192 | 38116 ft | 409 kts | 210° |
| 2026-05-03 21:34 | 29.30918 | 124.65934 | 38120 ft | 409 kts | 210° |
| 2026-05-03 21:34 | 29.25570 | 124.63680 | 38124 ft | 410 kts | 210° |
| 2026-05-03 21:35 | 29.20201 | 124.61420 | 38119 ft | 411 kts | 210° |
| 2026-05-03 21:35 | 29.14829 | 124.59161 | 38113 ft | 412 kts | 210° |
| 2026-05-03 21:36 | 29.09479 | 124.56912 | 38118 ft | 413 kts | 210° |
| 2026-05-03 21:36 | 29.04080 | 124.54646 | 38119 ft | 413 kts | 210° |
| 2026-05-03 21:37 | 28.98763 | 124.52197 | 38116 ft | 410 kts | 213° |
| 2026-05-03 21:37 | 28.93713 | 124.49253 | 38121 ft | 405 kts | 218° |
| 2026-05-03 21:38 | 28.88964 | 124.45849 | 38118 ft | 401 kts | 222° |
| 2026-05-03 21:38 | 28.84388 | 124.42190 | 38119 ft | 402 kts | 222° |
| 2026-05-03 21:39 | 28.79805 | 124.38532 | 38117 ft | 402 kts | 222° |
| 2026-05-03 21:39 | 28.75225 | 124.34868 | 38115 ft | 402 kts | 222° |
| 2026-05-03 21:40 | 28.70632 | 124.31193 | 38118 ft | 403 kts | 222° |
| 2026-05-03 21:40 | 28.66063 | 124.27538 | 38116 ft | 403 kts | 222° |
| 2026-05-03 21:41 | 28.61459 | 124.23858 | 38119 ft | 404 kts | 222° |
| 2026-05-03 21:41 | 28.56839 | 124.20169 | 38114 ft | 405 kts | 222° |
| 2026-05-03 21:42 | 28.52222 | 124.16486 | 38115 ft | 406 kts | 222° |
| 2026-05-03 21:42 | 28.47593 | 124.12796 | 38115 ft | 406 kts | 222° |
| 2026-05-03 21:43 | 28.42988 | 124.09129 | 38117 ft | 406 kts | 222° |
| 2026-05-03 21:43 | 28.38347 | 124.05439 | 38117 ft | 407 kts | 222° |
| 2026-05-03 21:44 | 28.33615 | 124.01876 | 38116 ft | 411 kts | 219° |
| 2026-05-03 21:44 | 28.28557 | 123.98755 | 38115 ft | 416 kts | 214° |
| 2026-05-03 21:45 | 28.23218 | 123.96082 | 38109 ft | 421 kts | 212° |
| 2026-05-03 21:45 | 28.17822 | 123.93477 | 38113 ft | 422 kts | 212° |
| 2026-05-03 21:46 | 28.12410 | 123.90875 | 38113 ft | 423 kts | 212° |
| 2026-05-03 21:46 | 28.07024 | 123.88296 | 38117 ft | 423 kts | 212° |
| 2026-05-03 21:47 | 28.01592 | 123.85701 | 38117 ft | 424 kts | 212° |
| 2026-05-03 21:47 | 27.96151 | 123.83105 | 38111 ft | 424 kts | 212° |
| 2026-05-03 21:48 | 27.90696 | 123.80505 | 38108 ft | 425 kts | 212° |
| 2026-05-03 21:48 | 27.85233 | 123.77903 | 38114 ft | 425 kts | 212° |
| 2026-05-03 21:49 | 27.79771 | 123.75305 | 38114 ft | 426 kts | 212° |
| 2026-05-03 21:49 | 27.74341 | 123.72723 | 38115 ft | 426 kts | 212° |
| 2026-05-03 21:50 | 27.68865 | 123.70125 | 38112 ft | 427 kts | 212° |
| 2026-05-03 21:50 | 27.63509 | 123.67296 | 38112 ft | 421 kts | 216° |
| 2026-05-03 21:51 | 27.58476 | 123.63968 | 38115 ft | 417 kts | 221° |
| 2026-05-03 21:51 | 27.53770 | 123.60253 | 38112 ft | 414 kts | 223° |
| 2026-05-03 21:52 | 27.49078 | 123.56470 | 38114 ft | 415 kts | 223° |
| 2026-05-03 21:52 | 27.44386 | 123.52682 | 38112 ft | 415 kts | 223° |
| 2026-05-03 21:53 | 27.39688 | 123.48887 | 38106 ft | 415 kts | 223° |
| 2026-05-03 21:53 | 27.34988 | 123.45091 | 38111 ft | 416 kts | 223° |
| 2026-05-03 21:54 | 27.31068 | 123.41929 | 38112 ft | 416 kts | 223° |
| 2026-05-03 21:54 | 27.26357 | 123.38130 | 38115 ft | 416 kts | 223° |
| 2026-05-03 21:55 | 27.21641 | 123.34331 | 38110 ft | 417 kts | 223° |
| 2026-05-03 21:55 | 27.16925 | 123.30537 | 38116 ft | 417 kts | 223° |
| 2026-05-03 21:56 | 27.12203 | 123.26741 | 38105 ft | 417 kts | 223° |
| 2026-05-03 21:56 | 27.07499 | 123.22964 | 38114 ft | 418 kts | 223° |
| 2026-05-03 21:57 | 27.02759 | 123.19161 | 38105 ft | 418 kts | 223° |
| 2026-05-03 21:57 | 26.98018 | 123.15362 | 38107 ft | 418 kts | 223° |
| 2026-05-03 21:58 | 26.93273 | 123.11563 | 38114 ft | 418 kts | 223° |
| 2026-05-03 21:58 | 26.88529 | 123.07768 | 38120 ft | 418 kts | 223° |
| 2026-05-03 21:59 | 26.83813 | 123.03998 | 38113 ft | 419 kts | 223° |
| 2026-05-03 21:59 | 26.79057 | 123.00203 | 38107 ft | 419 kts | 223° |
| 2026-05-03 22:00 | 26.74296 | 122.96420 | 38111 ft | 420 kts | 223° |
| 2026-05-03 22:00 | 26.69528 | 122.92640 | 38109 ft | 420 kts | 222° |
| 2026-05-03 22:01 | 26.64759 | 122.88860 | 38109 ft | 420 kts | 222° |
| 2026-05-03 22:01 | 26.60009 | 122.85095 | 38106 ft | 421 kts | 222° |
| 2026-05-03 22:02 | 26.55219 | 122.81304 | 38109 ft | 421 kts | 222° |
| 2026-05-03 22:02 | 26.50432 | 122.77515 | 38110 ft | 422 kts | 222° |
| 2026-05-03 22:03 | 26.45636 | 122.73719 | 38108 ft | 422 kts | 222° |
| 2026-05-03 22:03 | 26.40867 | 122.69944 | 38106 ft | 423 kts | 222° |
| 2026-05-03 22:04 | 26.36059 | 122.66143 | 38107 ft | 423 kts | 222° |
| 2026-05-03 22:04 | 26.31248 | 122.62342 | 38103 ft | 424 kts | 222° |
| 2026-05-03 22:05 | 26.26425 | 122.58535 | 38100 ft | 424 kts | 221° |
| 2026-05-03 22:05 | 26.21602 | 122.54731 | 38105 ft | 425 kts | 221° |
| 2026-05-03 22:06 | 26.16765 | 122.50922 | 38102 ft | 425 kts | 221° |
| 2026-05-03 22:06 | 26.11923 | 122.47123 | 38101 ft | 426 kts | 221° |
| 2026-05-03 22:07 | 26.07074 | 122.43326 | 38102 ft | 426 kts | 221° |
| 2026-05-03 22:07 | 26.02217 | 122.39523 | 38099 ft | 427 kts | 221° |
| 2026-05-03 22:08 | 25.97389 | 122.35745 | 38098 ft | 427 kts | 221° |
| 2026-05-03 22:08 | 25.92514 | 122.31932 | 38096 ft | 428 kts | 221° |
| 2026-05-03 22:09 | 25.87636 | 122.28122 | 38097 ft | 428 kts | 221° |
| 2026-05-03 22:10 | 25.80311 | 122.22406 | 38101 ft | 429 kts | 221° |
| 2026-05-03 22:10 | 25.75412 | 122.18586 | 38093 ft | 430 kts | 221° |
| 2026-05-03 22:11 | 25.70513 | 122.14773 | 38094 ft | 430 kts | 221° |
| 2026-05-03 22:11 | 25.65679 | 122.10923 | 38099 ft | 429 kts | 223° |
| 2026-05-03 22:12 | 25.61136 | 122.06645 | 38098 ft | 426 kts | 228° |
| 2026-05-03 22:12 | 25.56982 | 122.01964 | 38099 ft | 424 kts | 232° |
| 2026-05-03 22:13 | 25.53085 | 121.97036 | 38091 ft | 424 kts | 233° |
| 2026-05-03 22:13 | 25.49216 | 121.92133 | 38097 ft | 425 kts | 233° |
| 2026-05-03 22:14 | 25.45315 | 121.87185 | 38096 ft | 425 kts | 233° |
| 2026-05-03 22:14 | 25.41418 | 121.82244 | 38097 ft | 426 kts | 233° |
| 2026-05-03 22:15 | 25.37519 | 121.77302 | 38094 ft | 426 kts | 233° |
| 2026-05-03 22:15 | 25.33610 | 121.72351 | 38102 ft | 427 kts | 233° |
| 2026-05-03 22:16 | 25.29690 | 121.67391 | 38109 ft | 427 kts | 233° |
| 2026-05-03 22:16 | 25.25799 | 121.62472 | 38107 ft | 428 kts | 233° |
| 2026-05-03 22:17 | 25.21870 | 121.57510 | 38133 ft | 428 kts | 233° |
| 2026-05-03 22:17 | 25.17936 | 121.52548 | 38098 ft | 429 kts | 233° |
| 2026-05-03 22:18 | 25.14040 | 121.47530 | 38132 ft | 430 kts | 233° |
| 2026-05-03 22:18 | 25.10191 | 121.42529 | 38125 ft | 429 kts | 233° |
| 2026-05-03 22:19 | 25.06319 | 121.37506 | 38116 ft | 429 kts | 233° |
| 2026-05-03 22:19 | 25.02436 | 121.32478 | 38116 ft | 430 kts | 233° |
| 2026-05-03 22:20 | 24.98545 | 121.27446 | 38114 ft | 431 kts | 233° |
| 2026-05-03 22:20 | 24.94651 | 121.22415 | 38103 ft | 431 kts | 233° |
| 2026-05-03 22:21 | 24.90746 | 121.17373 | 38107 ft | 432 kts | 233° |
| 2026-05-03 22:21 | 24.86841 | 121.12337 | 38093 ft | 432 kts | 233° |
| 2026-05-03 22:22 | 24.82926 | 121.07296 | 38087 ft | 432 kts | 233° |
| 2026-05-03 22:22 | 24.79031 | 121.02290 | 38071 ft | 433 kts | 233° |
| 2026-05-03 22:23 | 24.75106 | 120.97247 | 38063 ft | 433 kts | 233° |
| 2026-05-03 22:23 | 24.71181 | 120.92205 | 38061 ft | 434 kts | 233° |
| 2026-05-03 22:24 | 24.67242 | 120.87150 | 38061 ft | 434 kts | 233° |
| 2026-05-03 22:24 | 24.63305 | 120.82100 | 38050 ft | 435 kts | 233° |
| 2026-05-03 22:25 | 24.59383 | 120.77075 | 38048 ft | 435 kts | 233° |
| 2026-05-03 22:25 | 24.55381 | 120.72060 | 38043 ft | 437 kts | 231° |
| 2026-05-03 22:26 | 24.51159 | 120.67234 | 38044 ft | 437 kts | 230° |
| 2026-05-03 22:26 | 24.46943 | 120.62417 | 38043 ft | 437 kts | 230° |
| 2026-05-03 22:27 | 24.42717 | 120.57595 | 38043 ft | 438 kts | 230° |
| 2026-05-03 22:27 | 24.38511 | 120.52802 | 38041 ft | 439 kts | 230° |
| 2026-05-03 22:28 | 24.34269 | 120.47974 | 38044 ft | 439 kts | 230° |
| 2026-05-03 22:28 | 24.30019 | 120.43139 | 38039 ft | 440 kts | 230° |
| 2026-05-03 22:29 | 24.25771 | 120.38312 | 38041 ft | 440 kts | 230° |
| 2026-05-03 22:29 | 24.21512 | 120.33477 | 38034 ft | 440 kts | 230° |
| 2026-05-03 22:30 | 24.17250 | 120.28644 | 38026 ft | 441 kts | 230° |
| 2026-05-03 22:30 | 24.12974 | 120.23806 | 38011 ft | 441 kts | 230° |
| 2026-05-03 22:31 | 24.08699 | 120.18969 | 38012 ft | 442 kts | 230° |
| 2026-05-03 22:31 | 24.04435 | 120.14148 | 38006 ft | 443 kts | 230° |
| 2026-05-03 22:32 | 24.00139 | 120.09298 | 38004 ft | 443 kts | 230° |
| 2026-05-03 22:32 | 23.95830 | 120.04448 | 37998 ft | 444 kts | 230° |
| 2026-05-03 22:33 | 23.91513 | 119.99591 | 38004 ft | 445 kts | 230° |
| 2026-05-03 22:33 | 23.87194 | 119.94732 | 38003 ft | 445 kts | 230° |
| 2026-05-03 22:34 | 23.82875 | 119.89878 | 37999 ft | 445 kts | 230° |
| 2026-05-03 22:34 | 23.78571 | 119.85045 | 38010 ft | 446 kts | 230° |
| 2026-05-03 22:35 | 23.74241 | 119.80185 | 38010 ft | 446 kts | 230° |
| 2026-05-03 22:35 | 23.69911 | 119.75329 | 38015 ft | 446 kts | 230° |
| 2026-05-03 22:36 | 23.65568 | 119.70467 | 38015 ft | 447 kts | 230° |
| 2026-05-03 22:36 | 23.61336 | 119.65506 | 38017 ft | 445 kts | 233° |
| 2026-05-03 22:37 | 23.57562 | 119.60170 | 38023 ft | 443 kts | 238° |
| 2026-05-03 22:37 | 23.54237 | 119.54572 | 38021 ft | 442 kts | 240° |
| 2026-05-03 22:38 | 23.50944 | 119.48907 | 38017 ft | 442 kts | 240° |
| 2026-05-03 22:38 | 23.47650 | 119.43236 | 38020 ft | 442 kts | 240° |
| 2026-05-03 22:39 | 23.44354 | 119.37565 | 38013 ft | 442 kts | 240° |
| 2026-05-03 22:39 | 23.41053 | 119.31889 | 38015 ft | 442 kts | 240° |
| 2026-05-03 22:40 | 23.37752 | 119.26219 | 38005 ft | 442 kts | 240° |
| 2026-05-03 22:40 | 23.34469 | 119.20587 | 38008 ft | 443 kts | 240° |
| 2026-05-03 22:41 | 23.31162 | 119.14919 | 38001 ft | 443 kts | 240° |
| 2026-05-03 22:41 | 23.27851 | 119.09249 | 38011 ft | 443 kts | 240° |
| 2026-05-03 22:42 | 23.25100 | 119.04544 | 38018 ft | 443 kts | 240° |
| 2026-05-03 22:42 | 23.21780 | 118.98872 | 38000 ft | 444 kts | 240° |
| 2026-05-03 22:43 | 23.18458 | 118.93201 | 37996 ft | 444 kts | 240° |
| 2026-05-03 22:43 | 23.15135 | 118.87536 | 38010 ft | 444 kts | 240° |
| 2026-05-03 22:44 | 23.11805 | 118.81866 | 38011 ft | 444 kts | 240° |
| 2026-05-03 22:44 | 23.08474 | 118.76198 | 38009 ft | 445 kts | 240° |
| 2026-05-03 22:45 | 23.05165 | 118.70573 | 38011 ft | 445 kts | 240° |
| 2026-05-03 22:45 | 23.01824 | 118.64899 | 38012 ft | 445 kts | 240° |
| 2026-05-03 22:46 | 22.98482 | 118.59228 | 38014 ft | 445 kts | 240° |
| 2026-05-03 22:46 | 22.95136 | 118.53562 | 38009 ft | 445 kts | 240° |
| 2026-05-03 22:47 | 22.91771 | 118.47910 | 38015 ft | 446 kts | 240° |
| 2026-05-03 22:47 | 22.88400 | 118.42252 | 38013 ft | 446 kts | 240° |
| 2026-05-03 22:48 | 22.85026 | 118.36593 | 38015 ft | 446 kts | 240° |
| 2026-05-03 22:48 | 22.81651 | 118.30934 | 38016 ft | 446 kts | 240° |
| 2026-05-03 22:49 | 22.78295 | 118.25313 | 38012 ft | 447 kts | 240° |
| 2026-05-03 22:49 | 22.74913 | 118.19654 | 38014 ft | 447 kts | 240° |
| 2026-05-03 22:50 | 22.71523 | 118.13985 | 38015 ft | 447 kts | 240° |
| 2026-05-03 22:50 | 22.68132 | 118.08322 | 38014 ft | 447 kts | 239° |
| 2026-05-03 22:51 | 22.64741 | 118.02659 | 38016 ft | 447 kts | 239° |
| 2026-05-03 22:51 | 22.61345 | 117.97000 | 38016 ft | 447 kts | 239° |
| 2026-05-03 22:52 | 22.57957 | 117.91331 | 38014 ft | 448 kts | 240° |
| 2026-05-03 22:52 | 22.54608 | 117.85692 | 38012 ft | 448 kts | 240° |
| 2026-05-03 22:53 | 22.51232 | 117.80011 | 38012 ft | 448 kts | 240° |
| 2026-05-03 22:53 | 22.47848 | 117.74325 | 38009 ft | 449 kts | 240° |
| 2026-05-03 22:54 | 22.44457 | 117.68632 | 38011 ft | 449 kts | 240° |
| 2026-05-03 22:54 | 22.41091 | 117.62986 | 38011 ft | 449 kts | 239° |
| 2026-05-03 22:55 | 22.37810 | 117.57232 | 38009 ft | 448 kts | 244° |
| 2026-05-03 22:55 | 22.35310 | 117.51072 | 38013 ft | 446 kts | 252° |
| 2026-05-03 22:56 | 22.33737 | 117.44594 | 38019 ft | 445 kts | 261° |
| 2026-05-03 22:56 | 22.33114 | 117.37944 | 38014 ft | 444 kts | 268° |
| 2026-05-03 22:57 | 22.32968 | 117.31253 | 38017 ft | 444 kts | 269° |
| 2026-05-03 22:57 | 22.32845 | 117.24607 | 38018 ft | 445 kts | 269° |
| 2026-05-03 22:58 | 22.32720 | 117.17912 | 38017 ft | 445 kts | 269° |
| 2026-05-03 22:58 | 22.32592 | 117.11219 | 38016 ft | 445 kts | 269° |
| 2026-05-03 22:59 | 22.32461 | 117.04518 | 38025 ft | 445 kts | 269° |
| 2026-05-03 22:59 | 22.32327 | 116.97817 | 38022 ft | 445 kts | 269° |
| 2026-05-03 23:00 | 22.32191 | 116.91160 | 38017 ft | 445 kts | 269° |
| 2026-05-03 23:00 | 22.32052 | 116.84455 | 38018 ft | 445 kts | 269° |
| 2026-05-03 23:01 | 22.31910 | 116.77754 | 38027 ft | 445 kts | 269° |
| 2026-05-03 23:01 | 22.31765 | 116.71048 | 38030 ft | 445 kts | 269° |
| 2026-05-03 23:02 | 22.31618 | 116.64346 | 38027 ft | 445 kts | 268° |
| 2026-05-03 23:02 | 22.31467 | 116.57645 | 38032 ft | 445 kts | 268° |
| 2026-05-03 23:03 | 22.31315 | 116.50993 | 38033 ft | 445 kts | 268° |
| 2026-05-03 23:03 | 22.31160 | 116.44302 | 38032 ft | 445 kts | 268° |
| 2026-05-03 23:04 | 22.31002 | 116.37619 | 38030 ft | 444 kts | 268° |
| 2026-05-03 23:04 | 22.30841 | 116.30940 | 38024 ft | 444 kts | 268° |
| 2026-05-03 23:05 | 22.30678 | 116.24262 | 38025 ft | 444 kts | 268° |
| 2026-05-03 23:05 | 22.30513 | 116.17589 | 37746 ft | 443 kts | 268° |
| 2026-05-03 23:05 | 22.30429 | 116.14263 | 37480 ft | 440 kts | 268° |
| 2026-05-03 23:06 | 22.30345 | 116.10960 | 37221 ft | 438 kts | 268° |
| 2026-05-03 23:06 | 22.30262 | 116.07676 | 36964 ft | 436 kts | 268° |
| 2026-05-03 23:06 | 22.30176 | 116.04325 | 36660 ft | 435 kts | 268° |
| 2026-05-03 23:06 | 22.30090 | 116.01003 | 36261 ft | 435 kts | 268° |
| 2026-05-03 23:07 | 22.30005 | 115.97722 | 35714 ft | 436 kts | 268° |
| 2026-05-03 23:07 | 22.29919 | 115.94437 | 35122 ft | 437 kts | 268° |
| 2026-05-03 23:07 | 22.29833 | 115.91150 | 34519 ft | 438 kts | 268° |
| 2026-05-03 23:07 | 22.29746 | 115.87900 | 33884 ft | 439 kts | 268° |
| 2026-05-03 23:08 | 22.29657 | 115.84593 | 33181 ft | 440 kts | 268° |
| 2026-05-03 23:08 | 22.29563 | 115.81279 | 32524 ft | 441 kts | 268° |
| 2026-05-03 23:08 | 22.29444 | 115.77966 | 31870 ft | 441 kts | 268° |
| 2026-05-03 23:08 | 22.29318 | 115.74646 | 31216 ft | 442 kts | 267° |
| 2026-05-03 23:09 | 22.29191 | 115.71318 | 30548 ft | 443 kts | 267° |
| 2026-05-03 23:09 | 22.29064 | 115.67987 | 29821 ft | 444 kts | 267° |
| 2026-05-03 23:09 | 22.28938 | 115.64642 | 29044 ft | 445 kts | 267° |
| 2026-05-03 23:09 | 22.28812 | 115.61295 | 28270 ft | 446 kts | 267° |
| 2026-05-03 23:10 | 22.28686 | 115.57947 | 27775 ft | 443 kts | 267° |
| 2026-05-03 23:10 | 22.28561 | 115.54633 | 27291 ft | 440 kts | 267° |
| 2026-05-03 23:10 | 22.28436 | 115.51316 | 26741 ft | 437 kts | 266° |
| 2026-05-03 23:10 | 22.28311 | 115.48049 | 26229 ft | 432 kts | 266° |
| 2026-05-03 23:11 | 22.28187 | 115.44807 | 25669 ft | 430 kts | 266° |
| 2026-05-03 23:11 | 22.28064 | 115.41588 | 25170 ft | 426 kts | 266° |
| 2026-05-03 23:11 | 22.27942 | 115.38437 | 24699 ft | 422 kts | 266° |
| 2026-05-03 23:11 | 22.27820 | 115.35278 | 24232 ft | 418 kts | 266° |
| 2026-05-03 23:12 | 22.27698 | 115.32145 | 23767 ft | 415 kts | 266° |
| 2026-05-03 23:12 | 22.27577 | 115.29036 | 23257 ft | 412 kts | 266° |
| 2026-05-03 23:12 | 22.27456 | 115.25959 | 22763 ft | 408 kts | 266° |
| 2026-05-03 23:12 | 22.27335 | 115.22907 | 22297 ft | 403 kts | 266° |
| 2026-05-03 23:13 | 22.27215 | 115.19891 | 21847 ft | 399 kts | 266° |
| 2026-05-03 23:13 | 22.27074 | 115.16939 | 21406 ft | 395 kts | 264° |
| 2026-05-03 23:13 | 22.26803 | 115.14005 | 20963 ft | 391 kts | 261° |
| 2026-05-03 23:13 | 22.26392 | 115.11114 | 20526 ft | 387 kts | 258° |
| 2026-05-03 23:14 | 22.25892 | 115.08257 | 20080 ft | 384 kts | 258° |
| 2026-05-03 23:14 | 22.25392 | 115.05425 | 19638 ft | 382 kts | 258° |
| 2026-05-03 23:14 | 22.24892 | 115.02615 | 19198 ft | 379 kts | 258° |
| 2026-05-03 23:14 | 22.24392 | 114.99824 | 18759 ft | 377 kts | 258° |
| 2026-05-03 23:15 | 22.23894 | 114.97045 | 18318 ft | 375 kts | 258° |
| 2026-05-03 23:15 | 22.23482 | 114.94255 | 17830 ft | 374 kts | 261° |
| 2026-05-03 23:15 | 22.23219 | 114.91459 | 17374 ft | 372 kts | 264° |
| 2026-05-03 23:15 | 22.23108 | 114.88676 | 16936 ft | 369 kts | 267° |
| 2026-05-03 23:16 | 22.23070 | 114.85947 | 16509 ft | 367 kts | 267° |
| 2026-05-03 23:16 | 22.23038 | 114.83204 | 16081 ft | 364 kts | 267° |
| 2026-05-03 23:16 | 22.23007 | 114.80472 | 15644 ft | 362 kts | 268° |
| 2026-05-03 23:16 | 22.22977 | 114.77741 | 15222 ft | 360 kts | 268° |
| 2026-05-03 23:17 | 22.22947 | 114.75039 | 14888 ft | 352 kts | 268° |
| 2026-05-03 23:17 | 22.22920 | 114.72483 | 14685 ft | 326 kts | 268° |
| 2026-05-03 23:17 | 22.22896 | 114.70136 | 14616 ft | 299 kts | 267° |
| 2026-05-03 23:17 | 22.22873 | 114.67944 | 14537 ft | 283 kts | 267° |
| 2026-05-03 23:18 | 22.22847 | 114.65830 | 14469 ft | 281 kts | 267° |
| 2026-05-03 23:18 | 22.22820 | 114.63718 | 14358 ft | 280 kts | 267° |
| 2026-05-03 23:18 | 22.22793 | 114.61602 | 14248 ft | 278 kts | 267° |
| 2026-05-03 23:18 | 22.22766 | 114.59502 | 14148 ft | 277 kts | 267° |
| 2026-05-03 23:19 | 22.22740 | 114.57454 | 14059 ft | 275 kts | 267° |
| 2026-05-03 23:19 | 22.22712 | 114.55365 | 14022 ft | 282 kts | 267° |
| 2026-05-03 23:19 | 22.22682 | 114.53228 | 14021 ft | 285 kts | 267° |
| 2026-05-03 23:19 | 22.22653 | 114.51082 | 14016 ft | 285 kts | 267° |
| 2026-05-03 23:20 | 22.22625 | 114.48935 | 14016 ft | 285 kts | 267° |
| 2026-05-03 23:20 | 22.22596 | 114.46788 | 14014 ft | 285 kts | 267° |
| 2026-05-03 23:20 | 22.22567 | 114.44629 | 13950 ft | 286 kts | 267° |
| 2026-05-03 23:20 | 22.22537 | 114.42472 | 13550 ft | 287 kts | 267° |
| 2026-05-03 23:21 | 22.22507 | 114.40308 | 13182 ft | 284 kts | 268° |
| 2026-05-03 23:21 | 22.22479 | 114.38181 | 12851 ft | 281 kts | 268° |
| 2026-05-03 23:21 | 22.22449 | 114.36077 | 12531 ft | 278 kts | 268° |
| 2026-05-03 23:21 | 22.22420 | 114.33982 | 12209 ft | 276 kts | 268° |
| 2026-05-03 23:22 | 22.22362 | 114.29900 | 11592 ft | 270 kts | 268° |
| 2026-05-03 23:22 | 22.22333 | 114.27876 | 11276 ft | 268 kts | 268° |
| 2026-05-03 23:22 | 22.22304 | 114.25868 | 10985 ft | 266 kts | 268° |
| 2026-05-03 23:23 | 22.22275 | 114.23865 | 10672 ft | 267 kts | 268° |
| 2026-05-03 23:23 | 22.22245 | 114.21862 | 10366 ft | 265 kts | 268° |
| 2026-05-03 23:23 | 22.22215 | 114.19874 | 10063 ft | 263 kts | 268° |
| 2026-05-03 23:23 | 22.22185 | 114.17893 | 9761 ft | 261 kts | 268° |
| 2026-05-03 23:24 | 22.22156 | 114.15936 | 9444 ft | 259 kts | 268° |
| 2026-05-03 23:24 | 22.22127 | 114.13998 | 9139 ft | 256 kts | 268° |
| 2026-05-03 23:24 | 22.22097 | 114.12079 | 8845 ft | 254 kts | 268° |
| 2026-05-03 23:24 | 22.22069 | 114.10173 | 8551 ft | 252 kts | 268° |
| 2026-05-03 23:25 | 22.22040 | 114.08312 | 8265 ft | 250 kts | 269° |
| 2026-05-03 23:25 | 22.22009 | 114.06418 | 8024 ft | 245 kts | 269° |
| 2026-05-03 23:25 | 22.21981 | 114.04629 | 7938 ft | 228 kts | 269° |
| 2026-05-03 23:25 | 22.21956 | 114.03001 | 8027 ft | 215 kts | 268° |
| 2026-05-03 23:26 | 22.21913 | 114.01371 | 7843 ft | 217 kts | 268° |
| 2026-05-03 23:26 | 22.21857 | 113.99746 | 7517 ft | 215 kts | 268° |
| 2026-05-03 23:26 | 22.21802 | 113.98137 | 7239 ft | 212 kts | 268° |
| 2026-05-03 23:26 | 22.21749 | 113.96561 | 6982 ft | 208 kts | 268° |
| 2026-05-03 23:27 | 22.21697 | 113.95007 | 6734 ft | 205 kts | 268° |
| 2026-05-03 23:27 | 22.21662 | 113.93969 | 6572 ft | 204 kts | 268° |
| 2026-05-03 23:27 | 22.21596 | 113.91960 | 6236 ft | 200 kts | 268° |
| 2026-05-03 23:27 | 22.21563 | 113.90946 | 6075 ft | 199 kts | 268° |
| 2026-05-03 23:28 | 22.21890 | 113.88948 | 5959 ft | 218 kts | 298° |
| 2026-05-03 23:28 | 22.23015 | 113.87838 | 5979 ft | 226 kts | 331° |
| 2026-05-03 23:28 | 22.24585 | 113.87605 | 5981 ft | 235 kts | 6° |
| 2026-05-03 23:28 | 22.26037 | 113.88431 | 5986 ft | 243 kts | 40° |
| 2026-05-03 23:29 | 22.27222 | 113.89744 | 5707 ft | 243 kts | 37° |
| 2026-05-03 23:29 | 22.28695 | 113.90547 | 5357 ft | 233 kts | 17° |
| 2026-05-03 23:29 | 22.30086 | 113.91383 | 5074 ft | 232 kts | 38° |
| 2026-05-03 23:29 | 22.31213 | 113.92585 | 4886 ft | 219 kts | 49° |
| 2026-05-03 23:30 | 22.31699 | 113.93506 | 4769 ft | 207 kts | 70° |
| 2026-05-03 23:30 | 22.31931 | 113.95464 | 4407 ft | 190 kts | 87° |
| 2026-05-03 23:30 | 22.31978 | 113.96836 | 4171 ft | 176 kts | 88° |
| 2026-05-03 23:30 | 22.32021 | 113.98125 | 3943 ft | 169 kts | 88° |
| 2026-05-03 23:31 | 22.32078 | 113.99389 | 3728 ft | 167 kts | 87° |
| 2026-05-03 23:31 | 22.32123 | 114.00237 | 3576 ft | 167 kts | 86° |
| 2026-05-03 23:31 | 22.32196 | 114.01483 | 3349 ft | 166 kts | 86° |
| 2026-05-03 23:31 | 22.32272 | 114.02710 | 3121 ft | 165 kts | 86° |
| 2026-05-03 23:32 | 22.32354 | 114.03959 | 2899 ft | 164 kts | 86° |
| 2026-05-03 23:32 | 22.32432 | 114.05168 | 2679 ft | 162 kts | 86° |
| 2026-05-03 23:32 | 22.32511 | 114.06381 | 2466 ft | 160 kts | 85° |
| 2026-05-03 23:32 | 22.32587 | 114.07581 | 2231 ft | 157 kts | 85° |
| 2026-05-03 23:33 | 22.32664 | 114.08754 | 2016 ft | 155 kts | 84° |
| 2026-05-03 23:33 | 22.32738 | 114.09917 | 1802 ft | 155 kts | 84° |
| 2026-05-03 23:33 | 22.32817 | 114.11083 | 1620 ft | 154 kts | 84° |
| 2026-05-03 23:33 | 22.32899 | 114.12232 | 1462 ft | 154 kts | 83° |
| 2026-05-03 23:34 | 22.32990 | 114.13386 | 1294 ft | 153 kts | 82° |
| 2026-05-03 23:34 | 22.33094 | 114.14532 | 1181 ft | 153 kts | 82° |
| 2026-05-03 23:34 | 22.33202 | 114.15676 | 1085 ft | 153 kts | 82° |
| 2026-05-03 23:34 | 22.33317 | 114.16815 | 919 ft | 153 kts | 83° |
| 2026-05-03 23:35 | 22.33374 | 114.17965 | 675 ft | 154 kts | 103° |
| 2026-05-03 23:35 | 22.32826 | 114.18951 | 338 ft | 156 kts | 137° |
| 2026-05-03 23:35 | 22.32063 | 114.19777 | 59 ft | 150 kts | 132° |
| 2026-05-03 23:35 | 22.31404 | 114.20527 | 52 ft | 118 kts | 136° |
| 2026-05-03 23:36 | 22.30973 | 114.20994 | 51 ft | 52 kts | 134° |
| 2026-05-03 23:36 | 22.30826 | 114.21211 | 51 ft | 18 kts | 97° |
| 2026-05-03 23:36 | 22.30858 | 114.21257 | 51 ft | 14 kts | 15° |